EW0127 Weather Reports


Display with metric or nautical units.
time (UTC)temp
F
wind
direction
speed
MPH
gust
MPH
rain 1hr
in
rain 24hr
in
rain mn
in
humidity
%
barometer
mb
20200219101611 22 35 4.0 10.0 0.00 0.00 0.00 93 1033.7
20200219100002 22 42 4.0 8.0 0.00 0.00 0.00 93 1033.8
20200219094632 23 39 3.0 9.0 0.00 0.00 0.00 92 1033.8
20200219093201 23 39 4.0 10.0 0.00 0.00 0.00 92 1033.8
20200219091627 23 28 2.0 8.0 0.00 0.00 0.00 91 1033.9
20200219090244 24 25 3.0 8.0 0.00 0.00 0.00 91 1033.8
20200219084628 24 41 3.0 7.0 0.00 0.00 0.00 91 1033.6
20200219083138 24 42 4.0 10.0 0.00 0.00 0.00 90 1033.5
20200219081601 25 20 0.0 1.0 0.00 0.00 0.00 87 1033.3
20200219080130 25 47 0.0 0.0 0.00 0.00 0.00 86 1033.3
20200219074555 27 15 0.0 0.0 0.00 0.00 0.00 83 1033.2
20200219073118 26 5 0.0 0.0 0.00 0.00 0.00 82 1033.2
20200219071623 26 209 0.0 0.0 0.00 0.00 0.00 81 1033.0
20200219070052 26 209 0.0 0.0 0.00 0.00 0.00 81 1032.4
20200219064614 26 196 0.0 0.0 0.00 0.00 0.00 81 1032.2
20200219063055 26 196 0.0 0.0 0.00 0.00 0.00 81 1032.0
20200219061552 26 198 0.0 0.0 0.00 0.00 0.00 82 1031.8
20200219060036 26 201 0.0 0.0 0.00 0.00 0.00 81 1031.7
20200219054548 26 202 0.0 0.0 0.00 0.00 0.00 81 1031.7
20200219053128 27 203 0.0 0.0 0.00 0.00 0.00 80 1031.6
20200219051629 28 201 0.0 0.0 0.00 0.00 0.00 77 1031.7
20200219050100 28 199 0.0 0.0 0.00 0.00 0.00 77 1031.7
20200219044638 28 173 0.0 0.0 0.00 0.00 0.00 75 1031.7
20200219043053 29 178 0.0 0.0 0.00 0.00 0.00 74 1031.7
20200219041539 29 194 0.0 0.0 0.00 0.00 0.00 73 1031.7
20200219040114 29 178 0.0 0.0 0.00 0.00 0.00 73 1031.5
20200219034643 30 191 0.0 0.0 0.00 0.00 0.00 71 1031.3
20200219033042 31 174 0.0 0.0 0.00 0.00 0.00 68 1031.2
20200219031718 32 194 0.0 0.0 0.00 0.00 0.00 67 1031.2
20200219030035 32 188 0.0 0.0 0.00 0.00 0.00 65 1030.9
20200219024557 33 188 0.0 0.0 0.00 0.00 0.00 63 1030.7
20200219023042 34 173 0.0 0.0 0.00 0.00 0.00 63 1030.6
20200219021546 34 297 0.0 0.0 0.00 0.00 0.00 63 1030.7
20200219020051 33 298 0.0 0.0 0.00 0.00 0.00 64 1030.6
20200219014604 33 298 0.0 0.0 0.00 0.00 0.00 64 1030.5
20200219013114 33 298 0.0 0.0 0.00 0.00 0.00 62 1030.4
20200219011557 35 299 0.0 0.0 0.00 0.00 0.00 59 1030.3
20200219010054 35 299 0.0 0.0 0.00 0.00 0.00 57 1030.2
20200219004613 36 299 0.0 0.0 0.00 0.00 0.00 56 1030.1
20200219003138 38 299 0.0 0.0 0.00 0.00 0.00 53 1030.0
20200219001541 39 299 0.0 0.0 0.00 0.00 0.00 49 1029.8
20200219000058 40 299 0.0 0.0 0.00 0.00 0.00 49 1029.7
20200218234620 40 299 0.0 0.0 0.00 0.00 0.00 48 1029.7
20200218233111 41 299 0.0 0.0 0.00 0.00 0.00 48 1029.6
20200218231603 42 292 0.0 0.0 0.00 0.00 0.00 47 1029.6
20200218230039 42 279 0.0 0.0 0.00 0.00 0.00 48 1029.6
20200218224626 42 321 0.0 0.0 0.00 0.00 0.00 49 1029.5
20200218223044 43 323 0.0 0.0 0.00 0.00 0.00 50 1029.5
20200218221532 43 282 0.0 0.0 0.00 0.00 0.00 49 1029.5
20200218220056 42 235 0.0 0.0 0.00 0.00 0.00 55 1029.5
20200218214533 43 230 0.0 0.0 0.00 0.00 0.00 53 1029.6
20200218213036 43 234 0.0 0.0 0.00 0.00 0.00 51 1029.5
20200218211612 42 269 0.0 1.0 0.00 0.00 0.00 52 1029.4
20200218210106 42 288 0.0 0.0 0.00 0.00 0.00 52 1029.6
20200218204536 42 225 0.0 0.0 0.00 0.00 0.00 50 1029.7
20200218203056 43 324 0.0 0.0 0.00 0.00 0.00 52 1029.7
20200218201556 41 321 0.0 0.0 0.00 0.00 0.00 56 1029.8
20200218200022 41 282 0.0 0.0 0.00 0.00 0.00 57 1029.8
20200218194537 41 284 0.0 0.0 0.00 0.00 0.00 58 1029.9
20200218193106 40 299 0.0 0.0 0.00 0.00 0.00 57 1029.9
20200218191525 39 64 0.0 0.0 0.00 0.00 0.00 62 1030.0
20200218190016 39 280 0.0 4.0 0.00 0.00 0.00 62 1030.1
20200218184517 39 35 0.0 4.0 0.00 0.00 0.00 63 1030.2
20200218183022 38 355 0.0 0.0 0.00 0.00 0.00 65 1030.4
20200218181517 38 342 0.0 0.0 0.00 0.00 0.00 65 1030.5
20200218180011 37 328 0.0 1.0 0.00 0.00 0.00 68 1030.6
20200218174512 36 334 1.0 8.0 0.00 0.00 0.00 69 1030.8
20200218173020 37 9 1.0 5.0 0.00 0.00 0.00 69 1030.9
20200218171532 36 333 1.0 6.0 0.00 0.00 0.00 71 1030.8
20200218170015 35 55 1.0 6.0 0.00 0.00 0.00 73 1030.7
20200218164504 34 47 1.0 5.0 0.00 0.00 0.00 74 1030.7
20200218163006 34 312 3.0 7.0 0.00 0.00 0.00 76 1030.5
20200218161727 33 316 0.0 5.0 0.00 0.00 0.00 76 1030.6
20200218160115 32 328 1.0 5.0 0.00 0.00 0.00 80 1030.6
20200218154759 31 11 1.0 6.0 0.00 0.00 0.00 83 1030.4
20200218153108 29 344 3.0 8.0 0.00 0.00 0.00 85 1030.1
20200218151702 27 340 0.0 4.0 0.00 0.00 0.00 90 1030.0
20200218150101 27 348 0.0 5.0 0.00 0.00 0.00 90 1029.7
20200218144609 25 321 0.0 4.0 0.00 0.00 0.00 92 1029.4
20200218143106 24 35 0.0 4.0 0.00 0.00 0.00 93 1029.3
20200218141645 23 5 0.0 4.0 0.00 0.00 0.00 93 1029.1
20200218140205 22 317 0.0 2.0 0.00 0.00 0.00 93 1028.8
20200218134549 22 323 0.0 1.0 0.00 0.00 0.00 93 1028.4
20200218133103 22 317 0.0 1.0 0.00 0.00 0.00 92 1028.4
20200218131633 22 318 0.0 2.0 0.00 0.00 0.00 92 1028.1
20200218130046 23 323 0.0 1.0 0.00 0.00 0.00 92 1028.0
20200218124546 23 313 0.0 2.0 0.00 0.00 0.00 92 1027.9
20200218123053 23 324 0.0 4.0 0.00 0.00 0.00 92 1027.6
20200218121558 23 311 0.0 1.0 0.00 0.00 0.00 92 1027.6
20200218120040 23 325 0.0 2.0 0.00 0.00 0.00 92 1027.3
20200218114611 23 325 0.0 1.0 0.00 0.00 0.00 92 1027.1
20200218113053 23 319 0.0 2.0 0.00 0.00 0.00 91 1026.9
20200218111551 24 320 0.0 1.0 0.00 0.00 0.00 91 1026.8
20200218110050 24 324 0.0 1.0 0.00 0.00 0.00 91 1026.6
20200218104604 24 322 0.0 1.0 0.00 0.01 0.00 90 1026.2
20200218103046 24 316 0.0 1.0 0.00 0.01 0.00 90 1026.0